Time;durP1;ratioP1;P1;durP2;ratioP2;P2;SDS_P1;SDS_P2;PMS_P1;PMS_P2;Temp;Humidity;BMP_temperature;BMP_pressure;BME280_temperature;BME280_humidity;BME280_pressure;Samples;Min_cycle;Max_cycle;Signal;HPM_P1;HPM_P2
2022/01/26 00:07:16;;;;;;;100.35;36.03;;;;;;;;;;5093506;27;95329;-78
2022/01/26 00:09:43;;;;;;;98.00;34.17;;;;;;;;;;5074201;27;96755;-78
2022/01/26 00:12:09;;;;;;;102.07;36.35;;;;;;;;;;5085243;27;97249;-78
2022/01/26 00:14:40;;;;;;;98.88;36.60;;;;;;;;;;5082636;27;96342;-77
2022/01/26 00:17:07;;;;;;;95.95;36.83;;;;;;;;;;5093537;27;96616;-78
2022/01/26 00:19:49;;;;;;;100.18;37.70;;;;;;;;;;5079330;27;97318;-78
2022/01/26 00:22:35;;;;;;;95.60;35.90;;;;;;;;;;5060189;27;96813;-78
2022/01/26 00:25:21;;;;;;;93.63;34.92;;;;;;;;;;5066304;27;97670;-78
2022/01/26 00:38:34;;;;;;;100.80;35.35;;;;;;;;;;5063281;27;95859;-77
2022/01/26 00:41:06;;;;;;;93.40;34.35;;;;;;;;;;5052418;27;97325;-77
2022/01/26 00:43:33;;;;;;;;;;;;;;;;;;5055532;27;95330;-77
2022/01/26 00:46:01;;;;;;;94.80;34.08;;;;;;;;;;5057563;27;126142;-77
2022/01/26 00:48:30;;;;;;;97.82;35.92;;;;;;;;;;5070960;27;95315;-77
2022/01/26 00:50:59;;;;;;;95.03;34.97;;;;;;;;;;5079222;27;96420;-77
2022/01/26 00:53:32;;;;;;;91.25;35.97;;;;;;;;;;5085819;27;97929;-77
2022/01/26 00:55:59;;;;;;;94.60;34.00;;;;;;;;;;5092911;27;95096;-77
2022/01/26 00:58:25;;;;;;;102.72;37.30;;;;;;;;;;5092477;27;96699;-77
2022/01/26 01:00:53;;;;;;;100.22;37.45;;;;;;;;;;5084689;27;97551;-77
2022/01/26 01:03:20;;;;;;;93.90;35.28;;;;;;;;;;5095862;27;95317;-77
2022/01/26 01:05:57;;;;;;;89.80;34.58;;;;;;;;;;5083602;27;97365;-77
2022/01/26 01:08:25;;;;;;;99.25;36.50;;;;;;;;;;5089577;27;95529;-77
2022/01/26 01:10:52;;;;;;;98.15;37.42;;;;;;;;;;5075757;27;96869;-77
2022/01/26 01:13:22;;;;;;;103.75;37.63;;;;;;;;;;5095803;27;97238;-77
2022/01/26 01:15:49;;;;;;;101.15;37.50;;;;;;;;;;5092559;27;95118;-77
2022/01/26 01:18:29;;;;;;;97.00;35.70;;;;;;;;;;5095203;27;97087;-77
2022/01/26 01:30:58;;;;;;;96.22;35.25;;;;;;;;;;5085793;27;96876;-76
2022/01/26 01:33:33;;;;;;;100.90;36.80;;;;;;;;;;5084700;27;97997;-79
2022/01/26 01:36:01;;;;;;;97.13;35.78;;;;;;;;;;5080823;27;95330;-79
2022/01/26 01:38:29;;;;;;;96.40;34.97;;;;;;;;;;5082158;27;96875;-78
2022/01/26 01:40:55;;;;;;;102.10;36.10;;;;;;;;;;5084664;27;97360;-79
2022/01/26 01:43:22;;;;;;;103.00;36.60;;;;;;;;;;5086016;27;95371;-79
2022/01/26 01:45:51;;;;;;;96.35;36.72;;;;;;;;;;5096212;27;96951;-79
2022/01/26 01:48:21;;;;;;;102.75;37.15;;;;;;;;;;5097579;27;97722;-80
2022/01/26 01:50:49;;;;;;;102.03;36.42;;;;;;;;;;5092827;27;96878;-78
2022/01/26 01:53:17;;;;;;;100.53;36.35;;;;;;;;;;5093151;27;95844;-78
2022/01/26 01:55:49;;;;;;;108.07;36.55;;;;;;;;;;5091332;27;96051;-78
2022/01/26 01:58:16;;;;;;;105.90;38.00;;;;;;;;;;5095756;27;96676;-79
2022/01/26 02:00:43;;;;;;;99.28;37.95;;;;;;;;;;5089239;27;97904;-78
2022/01/26 02:03:09;;;;;;;106.65;37.75;;;;;;;;;;5084089;27;95403;-79
2022/01/26 02:05:36;;;;;;;111.47;40.58;;;;;;;;;;5083845;27;96717;-78
2022/01/26 02:08:03;;;;;;;111.15;40.13;;;;;;;;;;5094001;27;97435;-79
2022/01/26 02:10:31;;;;;;;113.93;39.25;;;;;;;;;;5091046;27;95448;-78
2022/01/26 02:13:01;;;;;;;111.15;39.65;;;;;;;;;;5094679;27;97653;-79
2022/01/26 02:15:37;;;;;;;106.45;39.63;;;;;;;;;;5094696;27;95191;-77
2022/01/26 02:18:11;;;;;;;105.70;38.70;;;;;;;;;;5082774;27;96734;-78
2022/01/26 02:56:25;;;;;;;108.80;40.72;;;;;;;;;;5085938;27;97164;-78
2022/01/26 03:09:24;;;;;;;118.60;42.42;;;;;;;;;;5093972;27;96777;-77
2022/01/26 03:11:50;;;;;;;;;;;;;;;;;;5083916;27;97759;-78
2022/01/26 03:14:47;;;;;;;108.28;39.53;;;;;;;;;;5078431;27;119102;-79
2022/01/26 03:19:52;;;;;;;111.20;40.60;;;;;;;;;;5087819;27;97141;-76
2022/01/26 03:30:54;;;;;;;112.70;42.90;;;;;;;;;;5093961;27;96658;-76
2022/01/26 03:33:52;;;;;;;115.22;42.88;;;;;;;;;;5069270;27;97393;-76
2022/01/26 03:36:19;;;;;;;112.93;42.20;;;;;;;;;;5079317;27;96626;-77
2022/01/26 03:38:49;;;;;;;120.45;43.72;;;;;;;;;;5069028;27;96922;-77
2022/01/26 03:41:32;;;;;;;109.57;40.22;;;;;;;;;;5061883;27;97360;-77
2022/01/26 03:43:59;;;;;;;120.10;42.70;;;;;;;;;;5074376;27;96481;-77
2022/01/26 03:46:26;;;;;;;120.43;42.67;;;;;;;;;;5049955;27;97620;-77
2022/01/26 03:48:52;;;;;;;117.47;42.75;;;;;;;;;;5068769;27;95344;-77
2022/01/26 03:51:19;;;;;;;113.88;43.42;;;;;;;;;;5087941;27;96901;-77
2022/01/26 03:53:45;;;;;;;118.95;43.38;;;;;;;;;;5076728;27;97341;-78
2022/01/26 03:56:12;;;;;;;114.10;41.67;;;;;;;;;;5083700;27;95370;-77
2022/01/26 03:58:38;;;;;;;115.50;42.95;;;;;;;;;;5090310;27;96911;-78
2022/01/26 04:01:04;;;;;;;122.18;43.05;;;;;;;;;;5091183;27;97306;-78
2022/01/26 04:03:43;;;;;;;118.32;44.08;;;;;;;;;;5063914;27;95479;-77
2022/01/26 04:06:13;;;;;;;116.90;44.95;;;;;;;;;;5094493;27;96113;-77
2022/01/26 04:08:42;;;;;;;111.93;42.17;;;;;;;;;;5088664;27;95434;-77
2022/01/26 04:11:28;;;;;;;114.03;43.38;;;;;;;;;;5093615;27;96909;-77
2022/01/26 04:13:58;;;;;;;109.93;41.85;;;;;;;;;;5081040;27;97892;-78
2022/01/26 04:16:25;;;;;;;119.13;42.88;;;;;;;;;;5093170;27;95453;-77
2022/01/26 04:18:54;;;;;;;113.88;43.45;;;;;;;;;;5073322;27;96808;-77
2022/01/26 04:24:29;;;;;;;108.97;42.67;;;;;;;;;;5075968;27;96827;-77
2022/01/26 04:29:30;;;;;;;116.50;44.35;;;;;;;;;;5088953;27;97122;-77
2022/01/26 04:31:58;;;;;;;111.05;43.25;;;;;;;;;;5090515;27;96901;-77
2022/01/26 04:34:25;;;;;;;115.07;42.45;;;;;;;;;;5083793;27;97536;-77
2022/01/26 04:37:05;;;;;;;122.68;44.97;;;;;;;;;;5090291;27;95393;-77
2022/01/26 04:39:41;;;;;;;112.97;44.20;;;;;;;;;;5086647;27;96956;-77
2022/01/26 04:42:14;;;;;;;117.18;44.00;;;;;;;;;;5073430;27;97527;-77
2022/01/26 04:44:51;;;;;;;111.93;44.08;;;;;;;;;;5082963;27;95193;-77
2022/01/26 04:47:17;;;;;;;116.53;42.72;;;;;;;;;;5089349;27;97353;-77
2022/01/26 04:49:43;;;;;;;114.68;43.38;;;;;;;;;;5086904;27;97476;-78
2022/01/26 04:52:10;;;;;;;116.60;43.45;;;;;;;;;;5095434;27;95274;-78
2022/01/26 04:54:36;;;;;;;118.43;46.05;;;;;;;;;;5062599;27;97359;-77
2022/01/26 04:57:03;;;;;;;122.35;44.90;;;;;;;;;;5073875;27;95310;-78
2022/01/26 04:59:29;;;;;;;120.55;45.67;;;;;;;;;;5077037;27;96801;-77
2022/01/26 05:01:55;;;;;;;113.45;43.13;;;;;;;;;;5069887;27;97404;-77
2022/01/26 05:04:22;;;;;;;121.38;44.47;;;;;;;;;;5083414;27;95143;-76
2022/01/26 05:06:48;;;;;;;120.18;43.85;;;;;;;;;;5088368;27;96998;-77
2022/01/26 05:09:14;;;;;;;115.13;45.33;;;;;;;;;;5076627;27;97360;-78
2022/01/26 05:11:42;;;;;;;112.93;44.95;;;;;;;;;;5091760;27;95341;-78
2022/01/26 05:14:09;;;;;;;121.53;45.88;;;;;;;;;;5088003;27;96856;-79
2022/01/26 05:16:36;;;;;;;118.03;45.17;;;;;;;;;;5075189;27;95592;-77
2022/01/26 05:19:04;;;;;;;123.47;46.50;;;;;;;;;;5090600;27;96828;-78
2022/01/26 05:21:31;;;;;;;117.50;43.40;;;;;;;;;;5090397;27;97256;-77
2022/01/26 05:23:58;;;;;;;123.60;44.95;;;;;;;;;;5090051;27;95254;-78
2022/01/26 05:26:24;;;;;;;118.60;43.85;;;;;;;;;;5085173;27;96937;-78
2022/01/26 05:28:51;;;;;;;122.85;45.33;;;;;;;;;;5089964;27;97601;-78
2022/01/26 05:31:17;;;;;;;120.95;46.92;;;;;;;;;;5091151;27;95399;-77
2022/01/26 05:33:44;;;;;;;122.43;45.60;;;;;;;;;;5092619;27;96960;-78
2022/01/26 05:36:11;;;;;;;120.63;46.22;;;;;;;;;;5091233;27;95338;-77
2022/01/26 05:38:37;;;;;;;122.88;46.08;;;;;;;;;;5077525;27;98516;-76
2022/01/26 05:41:04;;;;;;;130.20;47.15;;;;;;;;;;5073524;27;97350;-77
2022/01/26 05:43:31;;;;;;;125.25;46.58;;;;;;;;;;5072900;27;95381;-76
2022/01/26 05:46:03;;;;;;;122.30;46.17;;;;;;;;;;5085241;27;96896;-76
2022/01/26 05:48:30;;;;;;;125.17;46.00;;;;;;;;;;5094922;27;97919;-76
2022/01/26 05:51:04;;;;;;;127.03;44.78;;;;;;;;;;5088227;27;95244;-77
2022/01/26 05:53:31;;;;;;;130.88;46.95;;;;;;;;;;5063489;27;96803;-77
2022/01/26 05:55:58;;;;;;;128.80;48.40;;;;;;;;;;5091904;27;96240;-76
2022/01/26 05:58:24;;;;;;;131.00;48.72;;;;;;;;;;5094729;27;96743;-76
2022/01/26 06:00:51;;;;;;;132.73;47.28;;;;;;;;;;5094752;27;97285;-77
2022/01/26 06:03:17;;;;;;;129.40;46.28;;;;;;;;;;5084589;27;95416;-76
2022/01/26 06:05:44;;;;;;;125.40;47.03;;;;;;;;;;5064284;27;96836;-77
2022/01/26 06:08:11;;;;;;;128.15;45.92;;;;;;;;;;5056354;27;97582;-77
2022/01/26 06:10:38;;;;;;;134.85;46.33;;;;;;;;;;5094262;27;95367;-75
2022/01/26 06:13:04;;;;;;;126.97;47.92;;;;;;;;;;5087208;27;96790;-76
2022/01/26 06:15:36;;;;;;;129.32;46.00;;;;;;;;;;5066027;27;97310;-78
2022/01/26 06:18:03;;;;;;;139.77;48.47;;;;;;;;;;5063909;27;95348;-78
2022/01/26 06:20:29;;;;;;;132.38;47.38;;;;;;;;;;5090480;27;97267;-78
2022/01/26 06:22:56;;;;;;;133.10;47.92;;;;;;;;;;5076933;27;96580;-76
2022/01/26 06:25:22;;;;;;;131.60;46.03;;;;;;;;;;5066782;27;97195;-78
2022/01/26 06:27:51;;;;;;;137.50;46.67;;;;;;;;;;5073255;27;97591;-78
2022/01/26 06:30:18;;;;;;;133.57;47.58;;;;;;;;;;5057932;27;95739;-77
2022/01/26 06:32:44;;;;;;;141.57;49.70;;;;;;;;;;5069034;27;97023;-78
2022/01/26 06:35:11;;;;;;;137.85;48.72;;;;;;;;;;5069583;27;97332;-78
2022/01/26 06:37:38;;;;;;;142.18;48.15;;;;;;;;;;5066206;27;95354;-78
2022/01/26 06:40:04;;;;;;;139.38;48.65;;;;;;;;;;5066230;27;96938;-77
2022/01/26 06:42:38;;;;;;;144.10;47.72;;;;;;;;;;5064307;27;95450;-78
2022/01/26 06:45:25;;;;;;;136.73;48.25;;;;;;;;;;5069402;27;96956;-78
2022/01/26 06:50:37;;;;;;;152.90;49.67;;;;;;;;;;5083952;27;95295;-77
2022/01/26 06:53:03;;;;;;;141.48;47.42;;;;;;;;;;5089063;27;96543;-78
2022/01/26 06:55:30;;;;;;;152.93;49.80;;;;;;;;;;5093750;27;97359;-78
2022/01/26 06:57:56;;;;;;;140.23;48.28;;;;;;;;;;5093308;27;96115;-78
2022/01/26 07:00:23;;;;;;;142.13;49.10;;;;;;;;;;5083913;27;96765;-77
2022/01/26 07:02:49;;;;;;;141.27;49.70;;;;;;;;;;5084974;27;97373;-78
2022/01/26 07:05:19;;;;;;;146.32;49.05;;;;;;;;;;5075341;27;96728;-77
2022/01/26 07:07:46;;;;;;;151.68;49.22;;;;;;;;;;5092145;27;97654;-78
2022/01/26 07:10:12;;;;;;;156.43;50.40;;;;;;;;;;5088771;27;95206;-78
2022/01/26 07:12:39;;;;;;;159.80;50.08;;;;;;;;;;5085514;27;96782;-77
2022/01/26 07:23:05;;;;;;;154.13;48.65;;;;;;;;;;5091409;27;97365;-78
2022/01/26 07:25:32;;;;;;;150.07;49.58;;;;;;;;;;5095956;27;95202;-78
2022/01/26 07:28:01;;;;;;;146.02;49.40;;;;;;;;;;5090737;27;97725;-78
2022/01/26 07:30:28;;;;;;;143.88;49.53;;;;;;;;;;5079408;27;95361;-79
2022/01/26 07:32:54;;;;;;;157.77;50.90;;;;;;;;;;5090890;27;96807;-78
2022/01/26 07:35:21;;;;;;;160.88;52.70;;;;;;;;;;5080554;27;97365;-79
2022/01/26 07:37:48;;;;;;;153.48;50.40;;;;;;;;;;5088420;27;95797;-79
2022/01/26 07:40:14;;;;;;;150.88;49.05;;;;;;;;;;5093199;27;96949;-78
2022/01/26 07:42:41;;;;;;;151.63;50.67;;;;;;;;;;5093356;27;96277;-79
2022/01/26 07:45:08;;;;;;;160.60;51.88;;;;;;;;;;5072443;27;96540;-79
2022/01/26 07:47:36;;;;;;;160.00;50.40;;;;;;;;;;5088997;27;97276;-78
2022/01/26 07:50:05;;;;;;;157.50;49.53;;;;;;;;;;5080669;27;95313;-79
2022/01/26 07:52:36;;;;;;;150.73;49.92;;;;;;;;;;5092505;27;96854;-88
2022/01/26 16:21:44;;;;;;;86.07;35.05;;;;;;;;;;4997313;27;1321243;-77
2022/01/26 16:27:36;;;;;;;85.80;37.80;;;;;;;;;;5025024;28;96062;-77
2022/01/26 16:37:51;;;;;;;85.18;38.33;;;;;;;;;;5026403;28;96645;-79
2022/01/26 17:11:06;;;;;;;81.82;38.35;;;;;;;;;;5103252;27;97372;-78
2022/01/26 17:34:29;;;;;;;81.80;37.92;;;;;;;;;;5108307;27;96229;-79
2022/01/26 17:55:39;;;;;;;80.18;37.75;;;;;;;;;;5103831;27;97428;-78
2022/01/26 18:49:46;;;;;;;73.88;35.15;;;;;;;;;;5092243;27;95372;-78
2022/01/26 18:52:13;;;;;;;78.43;35.28;;;;;;;;;;5075124;27;96516;-77
2022/01/26 18:54:40;;;;;;;79.00;35.00;;;;;;;;;;5092944;27;96970;-78
2022/01/26 18:57:07;;;;;;;71.53;33.90;;;;;;;;;;5093064;27;95382;-78
2022/01/26 18:59:34;;;;;;;81.05;34.78;;;;;;;;;;5093505;27;97102;-77
2022/01/26 19:02:02;;;;;;;72.82;34.05;;;;;;;;;;5085421;27;96508;-76
2022/01/26 19:04:44;;;;;;;74.88;32.92;;;;;;;;;;5086149;27;96850;-77
2022/01/26 19:07:10;;;;;;;72.68;34.13;;;;;;;;;;5092036;27;97336;-78
2022/01/26 19:09:43;;;;;;;70.68;33.10;;;;;;;;;;5093941;27;95502;-77
2022/01/26 19:12:12;;;;;;;77.03;32.92;;;;;;;;;;5093284;27;97264;-79
2022/01/26 19:14:43;;;;;;;79.47;33.42;;;;;;;;;;5091921;27;97797;-77
2022/01/26 19:17:16;;;;;;;71.75;32.40;;;;;;;;;;5091237;27;95313;-78
2022/01/26 19:25:12;;;;;;;77.13;35.40;;;;;;;;;;5091562;27;95885;-79
2022/01/26 19:33:05;;;;;;;79.82;35.45;;;;;;;;;;5088686;27;96742;-79
2022/01/26 19:46:24;;;;;;;82.32;34.28;;;;;;;;;;5088030;27;96985;-77
2022/01/26 19:51:42;;;;;;;79.53;35.90;;;;;;;;;;5082305;27;96949;-76
2022/01/26 19:54:09;;;;;;;84.53;35.40;;;;;;;;;;5086709;27;97108;-77
2022/01/26 19:56:35;;;;;;;77.93;33.63;;;;;;;;;;5090900;27;97293;-78
2022/01/26 19:59:02;;;;;;;81.95;34.05;;;;;;;;;;5091447;27;95409;-76
2022/01/26 20:01:29;;;;;;;84.07;36.15;;;;;;;;;;5091348;27;96919;-76
2022/01/26 20:03:56;;;;;;;73.55;32.53;;;;;;;;;;5089977;27;98919;-77
2022/01/26 20:06:23;;;;;;;79.97;35.80;;;;;;;;;;5093928;27;96134;-77
2022/01/26 20:09:01;;;;;;;78.38;33.92;;;;;;;;;;5092237;27;97467;-77
2022/01/26 20:11:40;;;;;;;77.10;33.75;;;;;;;;;;5062511;27;95348;-78
2022/01/26 20:14:07;;;;;;;76.25;32.08;;;;;;;;;;5082289;27;97042;-78
2022/01/26 20:16:34;;;;;;;85.50;35.40;;;;;;;;;;5091799;27;98550;-75
2022/01/26 20:19:00;;;;;;;73.30;32.03;;;;;;;;;;5090682;27;95173;-79
2022/01/26 20:21:27;;;;;;;71.78;31.55;;;;;;;;;;5092021;27;96775;-75
2022/01/26 20:23:58;;;;;;;71.10;32.83;;;;;;;;;;5091634;27;97324;-76
2022/01/26 20:26:24;;;;;;;80.22;32.92;;;;;;;;;;5090267;27;95655;-75
2022/01/26 20:28:51;;;;;;;73.43;32.42;;;;;;;;;;5089401;27;97198;-78
2022/01/26 20:31:21;;;;;;;71.95;32.58;;;;;;;;;;5090912;27;95391;-76
2022/01/26 20:33:48;;;;;;;80.95;36.38;;;;;;;;;;5090720;27;96644;-76
2022/01/26 20:36:16;;;;;;;77.90;32.42;;;;;;;;;;5080236;27;97359;-76
2022/01/26 20:38:43;;;;;;;72.00;32.78;;;;;;;;;;5091692;27;95556;-76
2022/01/26 20:41:09;;;;;;;70.45;31.88;;;;;;;;;;5091259;27;96701;-77
2022/01/26 20:43:36;;;;;;;74.40;31.50;;;;;;;;;;5091953;27;97363;-75
2022/01/26 20:46:05;;;;;;;74.47;31.38;;;;;;;;;;5088088;27;95661;-76
2022/01/26 20:48:32;;;;;;;72.10;32.63;;;;;;;;;;5088947;27;97015;-77
2022/01/26 20:50:59;;;;;;;76.93;31.48;;;;;;;;;;5094107;27;97100;-76
2022/01/26 20:53:25;;;;;;;71.43;30.88;;;;;;;;;;5091604;27;96757;-76
2022/01/26 20:55:51;;;;;;;68.93;31.10;;;;;;;;;;5085960;27;97640;-77
2022/01/26 20:58:18;;;;;;;73.90;32.38;;;;;;;;;;5087408;27;95351;-77
2022/01/26 21:01:00;;;;;;;79.13;31.45;;;;;;;;;;5091157;27;97019;-77
2022/01/26 21:03:26;;;;;;;69.03;30.25;;;;;;;;;;5091366;27;97306;-76
2022/01/26 21:05:53;;;;;;;72.68;32.55;;;;;;;;;;5091598;27;95528;-76
2022/01/26 21:08:22;;;;;;;69.82;30.83;;;;;;;;;;5091309;27;96857;-76
2022/01/26 21:10:49;;;;;;;69.30;31.05;;;;;;;;;;5091888;27;97313;-77
2022/01/26 21:13:29;;;;;;;72.07;32.03;;;;;;;;;;5088264;27;95204;-77
2022/01/26 21:15:55;;;;;;;70.60;30.90;;;;;;;;;;5091420;27;97325;-77
2022/01/26 21:18:22;;;;;;;66.72;30.70;;;;;;;;;;5091023;27;96122;-77
2022/01/26 21:20:48;;;;;;;69.88;29.67;;;;;;;;;;5091183;27;96827;-78
2022/01/26 21:23:15;;;;;;;68.93;32.30;;;;;;;;;;5090363;27;97371;-77
2022/01/26 21:25:41;;;;;;;68.00;29.10;;;;;;;;;;5092027;27;95160;-77
2022/01/26 21:28:07;;;;;;;66.80;28.80;;;;;;;;;;5090636;27;97251;-77
2022/01/26 21:30:34;;;;;;;62.63;29.33;;;;;;;;;;5089066;27;97024;-77
2022/01/26 21:33:02;;;;;;;63.70;28.63;;;;;;;;;;5093400;27;95334;-77
2022/01/26 21:35:29;;;;;;;58.38;27.48;;;;;;;;;;5091397;27;97633;-77
2022/01/26 21:37:56;;;;;;;67.47;30.77;;;;;;;;;;5087424;27;95348;-78
2022/01/26 21:40:23;;;;;;;64.43;28.48;;;;;;;;;;5073025;27;96697;-78
2022/01/26 21:42:49;;;;;;;60.45;27.83;;;;;;;;;;5092004;27;97468;-77
2022/01/26 21:45:15;;;;;;;62.05;28.52;;;;;;;;;;5093427;27;95186;-79
2022/01/26 21:47:42;;;;;;;57.58;27.20;;;;;;;;;;5096589;27;97324;-78
2022/01/26 21:50:08;;;;;;;64.15;28.30;;;;;;;;;;5094968;27;97409;-79
2022/01/26 21:52:35;;;;;;;55.65;26.35;;;;;;;;;;5095791;27;95400;-78
2022/01/26 21:55:01;;;;;;;59.05;26.90;;;;;;;;;;5080661;27;96716;-78
2022/01/26 21:57:31;;;;;;;54.58;25.13;;;;;;;;;;5095010;27;95359;-78
2022/01/26 22:00:04;;;;;;;53.60;25.50;;;;;;;;;;5095170;27;95791;-78
2022/01/26 22:02:32;;;;;;;54.47;25.35;;;;;;;;;;5094143;27;97890;-78
2022/01/26 22:05:00;;;;;;;51.22;25.58;;;;;;;;;;5095785;27;96750;-79
2022/01/26 22:07:29;;;;;;;53.95;25.00;;;;;;;;;;5086413;27;95941;-79
2022/01/26 22:09:55;;;;;;;48.33;23.70;;;;;;;;;;5077120;27;96556;-79
2022/01/26 22:12:23;;;;;;;48.88;23.58;;;;;;;;;;5095455;27;95214;-79
2022/01/26 22:14:49;;;;;;;47.50;23.42;;;;;;;;;;5095544;27;97211;-79
2022/01/26 22:17:15;;;;;;;51.40;24.02;;;;;;;;;;5097446;27;97266;-78
2022/01/26 22:19:42;;;;;;;45.40;22.30;;;;;;;;;;5094477;27;95694;-77
2022/01/26 22:22:08;;;;;;;39.17;21.58;;;;;;;;;;5094258;27;97301;-79
2022/01/26 22:24:36;;;;;;;46.03;20.73;;;;;;;;;;5095015;27;95367;-78
2022/01/26 22:27:03;;;;;;;44.92;21.05;;;;;;;;;;5077201;27;96998;-78
2022/01/26 22:29:30;;;;;;;43.88;21.67;;;;;;;;;;5094519;27;97279;-78
2022/01/26 22:31:56;;;;;;;47.47;21.17;;;;;;;;;;5093724;27;95428;-78
2022/01/26 22:34:24;;;;;;;42.20;22.23;;;;;;;;;;5094190;27;96845;-78
2022/01/26 22:36:50;;;;;;;39.03;21.15;;;;;;;;;;5094916;27;97733;-78
2022/01/26 22:39:17;;;;;;;45.70;21.20;;;;;;;;;;5097784;27;95322;-77
2022/01/26 22:41:43;;;;;;;41.70;20.98;;;;;;;;;;5075882;27;97391;-77
2022/01/26 22:44:10;;;;;;;43.08;20.63;;;;;;;;;;5094939;27;95242;-78
2022/01/26 22:46:37;;;;;;;40.55;20.85;;;;;;;;;;5094078;27;96967;-78
2022/01/26 22:49:03;;;;;;;35.28;19.48;;;;;;;;;;5094750;27;97796;-79
2022/01/26 22:51:30;;;;;;;37.97;20.10;;;;;;;;;;5094239;27;95353;-77
2022/01/26 22:53:57;;;;;;;38.72;20.33;;;;;;;;;;5094221;27;97080;-76
2022/01/26 22:56:23;;;;;;;37.70;19.23;;;;;;;;;;5094190;27;97250;-78
2022/01/26 22:58:50;;;;;;;36.58;18.40;;;;;;;;;;5093359;27;95310;-78
2022/01/26 23:04:01;;;;;;;38.30;19.60;;;;;;;;;;5094912;27;95360;-76
2022/01/26 23:06:27;;;;;;;34.70;18.88;;;;;;;;;;5092965;27;97115;-76
2022/01/26 23:08:55;;;;;;;40.80;19.85;;;;;;;;;;5083050;27;97283;-76
2022/01/26 23:11:23;;;;;;;45.78;21.10;;;;;;;;;;5094424;27;94973;-76
2022/01/26 23:13:50;;;;;;;37.13;19.45;;;;;;;;;;5094717;27;96725;-77
2022/01/26 23:16:37;;;;;;;41.95;21.33;;;;;;;;;;5094365;27;98976;-77
2022/01/26 23:19:04;;;;;;;40.30;20.48;;;;;;;;;;5094072;27;95400;-77
2022/01/26 23:21:30;;;;;;;39.65;21.88;;;;;;;;;;5082116;27;99767;-77
2022/01/26 23:24:00;;;;;;;38.53;20.75;;;;;;;;;;5097710;27;97447;-77
2022/01/26 23:26:32;;;;;;;40.08;21.80;;;;;;;;;;5093855;27;96759;-77
2022/01/26 23:29:10;;;;;;;39.45;19.67;;;;;;;;;;5091849;27;97584;-76
2022/01/26 23:34:47;;;;;;;45.38;22.80;;;;;;;;;;5093774;27;97226;-77
2022/01/26 23:37:38;;;;;;;42.57;22.93;;;;;;;;;;5093835;27;96197;-77
2022/01/26 23:43:58;;;;;;;43.97;22.45;;;;;;;;;;5093501;27;96775;-77
